sensor_id;sensor_type;location;lat;lon;timestamp;P1;durP1;ratioP1;P2;durP2;ratioP2
22622;SDS011;11478;51.094;7.030;2023-01-05T00:01:20;23.45;;;5.25;;
22622;SDS011;11478;51.094;7.030;2023-01-05T00:03:46;25.25;;;5.63;;
22622;SDS011;11478;51.094;7.030;2023-01-05T00:06:13;24.17;;;4.28;;
22622;SDS011;11478;51.094;7.030;2023-01-05T00:08:41;30.15;;;5.30;;
22622;SDS011;11478;51.094;7.030;2023-01-05T00:11:16;26.63;;;4.70;;
22622;SDS011;11478;51.094;7.030;2023-01-05T00:14:05;26.33;;;5.13;;
22622;SDS011;11478;51.094;7.030;2023-01-05T00:16:54;24.88;;;4.75;;
22622;SDS011;11478;51.094;7.030;2023-01-05T00:19:39;26.70;;;4.78;;
22622;SDS011;11478;51.094;7.030;2023-01-05T00:22:24;28.50;;;4.90;;
22622;SDS011;11478;51.094;7.030;2023-01-05T00:24:56;31.95;;;5.50;;
22622;SDS011;11478;51.094;7.030;2023-01-05T00:27:23;34.03;;;6.25;;
22622;SDS011;11478;51.094;7.030;2023-01-05T00:29:49;31.38;;;5.45;;
22622;SDS011;11478;51.094;7.030;2023-01-05T00:32:15;22.80;;;4.07;;
22622;SDS011;11478;51.094;7.030;2023-01-05T00:34:44;24.08;;;4.38;;
22622;SDS011;11478;51.094;7.030;2023-01-05T00:37:10;29.23;;;5.53;;
22622;SDS011;11478;51.094;7.030;2023-01-05T00:39:35;27.17;;;5.70;;
22622;SDS011;11478;51.094;7.030;2023-01-05T00:42:01;29.75;;;5.43;;
22622;SDS011;11478;51.094;7.030;2023-01-05T00:46:56;28.48;;;4.18;;
22622;SDS011;11478;51.094;7.030;2023-01-05T00:49:22;31.58;;;5.18;;
22622;SDS011;11478;51.094;7.030;2023-01-05T00:51:47;35.40;;;6.43;;
22622;SDS011;11478;51.094;7.030;2023-01-05T00:54:13;29.92;;;5.57;;
22622;SDS011;11478;51.094;7.030;2023-01-05T00:56:39;33.22;;;6.85;;
22622;SDS011;11478;51.094;7.030;2023-01-05T00:59:09;31.20;;;5.18;;
22622;SDS011;11478;51.094;7.030;2023-01-05T01:01:35;22.73;;;5.22;;
22622;SDS011;11478;51.094;7.030;2023-01-05T01:04:10;29.45;;;5.38;;
22622;SDS011;11478;51.094;7.030;2023-01-05T01:06:35;30.42;;;7.05;;
22622;SDS011;11478;51.094;7.030;2023-01-05T01:09:09;28.27;;;5.30;;
22622;SDS011;11478;51.094;7.030;2023-01-05T01:14:36;33.10;;;7.88;;
22622;SDS011;11478;51.094;7.030;2023-01-05T01:17:06;34.78;;;8.45;;
22622;SDS011;11478;51.094;7.030;2023-01-05T01:19:31;58.55;;;15.48;;
22622;SDS011;11478;51.094;7.030;2023-01-05T01:24:27;22.33;;;7.05;;
22622;SDS011;11478;51.094;7.030;2023-01-05T01:26:55;22.13;;;4.57;;
22622;SDS011;11478;51.094;7.030;2023-01-05T01:29:21;27.92;;;5.22;;
22622;SDS011;11478;51.094;7.030;2023-01-05T01:31:48;27.23;;;5.15;;
22622;SDS011;11478;51.094;7.030;2023-01-05T01:34:15;23.63;;;4.63;;
22622;SDS011;11478;51.094;7.030;2023-01-05T01:36:42;26.30;;;5.47;;
22622;SDS011;11478;51.094;7.030;2023-01-05T01:39:08;34.90;;;6.47;;
22622;SDS011;11478;51.094;7.030;2023-01-05T01:41:38;24.60;;;4.50;;
22622;SDS011;11478;51.094;7.030;2023-01-05T01:48:12;28.27;;;6.28;;
22622;SDS011;11478;51.094;7.030;2023-01-05T01:50:35;24.05;;;4.57;;
22622;SDS011;11478;51.094;7.030;2023-01-05T01:56:13;27.95;;;5.47;;
22622;SDS011;11478;51.094;7.030;2023-01-05T01:58:41;25.85;;;4.68;;
22622;SDS011;11478;51.094;7.030;2023-01-05T02:01:07;28.83;;;4.82;;
22622;SDS011;11478;51.094;7.030;2023-01-05T02:03:33;24.63;;;4.50;;
22622;SDS011;11478;51.094;7.030;2023-01-05T02:05:59;27.42;;;4.50;;
22622;SDS011;11478;51.094;7.030;2023-01-05T02:08:25;29.05;;;4.93;;
22622;SDS011;11478;51.094;7.030;2023-01-05T02:22:18;23.98;;;4.00;;
22622;SDS011;11478;51.094;7.030;2023-01-05T02:31:16;28.02;;;4.72;;
22622;SDS011;11478;51.094;7.030;2023-01-05T02:42:10;30.65;;;5.50;;
22622;SDS011;11478;51.094;7.030;2023-01-05T02:44:39;25.92;;;4.78;;
22622;SDS011;11478;51.094;7.030;2023-01-05T02:49:50;31.10;;;4.95;;
22622;SDS011;11478;51.094;7.030;2023-01-05T02:52:20;20.95;;;4.65;;
22622;SDS011;11478;51.094;7.030;2023-01-05T02:55:05;31.75;;;5.80;;
22622;SDS011;11478;51.094;7.030;2023-01-05T02:57:34;27.25;;;5.13;;
22622;SDS011;11478;51.094;7.030;2023-01-05T03:00:37;27.95;;;5.60;;
22622;SDS011;11478;51.094;7.030;2023-01-05T03:03:06;27.70;;;5.40;;
22622;SDS011;11478;51.094;7.030;2023-01-05T03:05:38;28.33;;;5.13;;
22622;SDS011;11478;51.094;7.030;2023-01-05T03:08:09;32.45;;;5.25;;
22622;SDS011;11478;51.094;7.030;2023-01-05T03:11:09;31.42;;;4.97;;
22622;SDS011;11478;51.094;7.030;2023-01-05T03:14:02;28.48;;;5.03;;
22622;SDS011;11478;51.094;7.030;2023-01-05T03:16:48;28.55;;;4.65;;
22622;SDS011;11478;51.094;7.030;2023-01-05T03:19:18;31.98;;;5.05;;
22622;SDS011;11478;51.094;7.030;2023-01-05T03:22:02;36.63;;;5.90;;
22622;SDS011;11478;51.094;7.030;2023-01-05T03:24:52;26.02;;;4.95;;
22622;SDS011;11478;51.094;7.030;2023-01-05T03:27:36;28.45;;;5.10;;
22622;SDS011;11478;51.094;7.030;2023-01-05T03:30:28;25.63;;;4.53;;
22622;SDS011;11478;51.094;7.030;2023-01-05T03:33:22;28.80;;;4.93;;
22622;SDS011;11478;51.094;7.030;2023-01-05T03:36:35;32.35;;;5.32;;
22622;SDS011;11478;51.094;7.030;2023-01-05T03:39:13;32.38;;;5.00;;
22622;SDS011;11478;51.094;7.030;2023-01-05T03:41:44;32.33;;;5.28;;
22622;SDS011;11478;51.094;7.030;2023-01-05T03:44:10;30.98;;;4.88;;
22622;SDS011;11478;51.094;7.030;2023-01-05T03:46:37;31.63;;;5.10;;
22622;SDS011;11478;51.094;7.030;2023-01-05T03:49:03;32.00;;;6.03;;
22622;SDS011;11478;51.094;7.030;2023-01-05T03:51:37;31.35;;;5.10;;
22622;SDS011;11478;51.094;7.030;2023-01-05T03:56:48;31.05;;;5.03;;
22622;SDS011;11478;51.094;7.030;2023-01-05T03:59:13;37.92;;;6.05;;
22622;SDS011;11478;51.094;7.030;2023-01-05T04:01:40;34.50;;;5.72;;
22622;SDS011;11478;51.094;7.030;2023-01-05T04:04:06;32.47;;;5.75;;
22622;SDS011;11478;51.094;7.030;2023-01-05T04:06:34;36.03;;;5.18;;
22622;SDS011;11478;51.094;7.030;2023-01-05T04:08:59;40.63;;;5.93;;
22622;SDS011;11478;51.094;7.030;2023-01-05T04:11:25;33.13;;;6.25;;
22622;SDS011;11478;51.094;7.030;2023-01-05T04:16:47;33.38;;;5.80;;
22622;SDS011;11478;51.094;7.030;2023-01-05T04:19:28;30.70;;;4.97;;
22622;SDS011;11478;51.094;7.030;2023-01-05T04:21:54;36.25;;;6.28;;
22622;SDS011;11478;51.094;7.030;2023-01-05T04:24:30;41.20;;;5.47;;
22622;SDS011;11478;51.094;7.030;2023-01-05T04:26:56;33.90;;;5.07;;
22622;SDS011;11478;51.094;7.030;2023-01-05T04:29:26;32.20;;;5.57;;
22622;SDS011;11478;51.094;7.030;2023-01-05T04:31:52;30.33;;;5.40;;
22622;SDS011;11478;51.094;7.030;2023-01-05T04:34:18;31.63;;;5.57;;
22622;SDS011;11478;51.094;7.030;2023-01-05T04:36:45;31.05;;;4.78;;
22622;SDS011;11478;51.094;7.030;2023-01-05T04:39:12;31.20;;;5.10;;
22622;SDS011;11478;51.094;7.030;2023-01-05T04:41:38;36.20;;;5.45;;
22622;SDS011;11478;51.094;7.030;2023-01-05T04:44:04;40.03;;;5.55;;
22622;SDS011;11478;51.094;7.030;2023-01-05T04:46:29;33.72;;;5.20;;
22622;SDS011;11478;51.094;7.030;2023-01-05T04:48:57;33.67;;;5.80;;
22622;SDS011;11478;51.094;7.030;2023-01-05T04:51:26;37.22;;;6.25;;
22622;SDS011;11478;51.094;7.030;2023-01-05T04:53:52;33.53;;;5.50;;
22622;SDS011;11478;51.094;7.030;2023-01-05T04:56:19;40.03;;;5.68;;
22622;SDS011;11478;51.094;7.030;2023-01-05T04:58:44;33.70;;;5.60;;
22622;SDS011;11478;51.094;7.030;2023-01-05T05:01:11;33.88;;;5.90;;
22622;SDS011;11478;51.094;7.030;2023-01-05T05:03:37;35.47;;;5.93;;
22622;SDS011;11478;51.094;7.030;2023-01-05T05:06:05;32.63;;;5.43;;
22622;SDS011;11478;51.094;7.030;2023-01-05T05:08:31;35.85;;;6.35;;
22622;SDS011;11478;51.094;7.030;2023-01-05T05:10:58;29.85;;;6.05;;
22622;SDS011;11478;51.094;7.030;2023-01-05T05:13:24;32.55;;;6.03;;
22622;SDS011;11478;51.094;7.030;2023-01-05T05:15:55;33.35;;;5.60;;
22622;SDS011;11478;51.094;7.030;2023-01-05T05:18:21;32.25;;;5.72;;
22622;SDS011;11478;51.094;7.030;2023-01-05T05:21:04;33.22;;;5.38;;
22622;SDS011;11478;51.094;7.030;2023-01-05T05:23:30;33.92;;;6.20;;
22622;SDS011;11478;51.094;7.030;2023-01-05T05:26:09;39.08;;;6.15;;
22622;SDS011;11478;51.094;7.030;2023-01-05T05:28:34;41.63;;;6.22;;
22622;SDS011;11478;51.094;7.030;2023-01-05T05:33:29;36.60;;;6.53;;
22622;SDS011;11478;51.094;7.030;2023-01-05T05:35:57;40.00;;;6.20;;
22622;SDS011;11478;51.094;7.030;2023-01-05T05:38:23;33.78;;;6.32;;
22622;SDS011;11478;51.094;7.030;2023-01-05T05:40:49;31.40;;;5.57;;
22622;SDS011;11478;51.094;7.030;2023-01-05T05:43:15;32.80;;;5.50;;
22622;SDS011;11478;51.094;7.030;2023-01-05T05:45:44;30.10;;;5.18;;
22622;SDS011;11478;51.094;7.030;2023-01-05T05:48:10;31.95;;;5.78;;
22622;SDS011;11478;51.094;7.030;2023-01-05T05:50:36;40.40;;;6.28;;
22622;SDS011;11478;51.094;7.030;2023-01-05T05:53:01;38.50;;;5.72;;
22622;SDS011;11478;51.094;7.030;2023-01-05T05:55:28;44.58;;;7.07;;
22622;SDS011;11478;51.094;7.030;2023-01-05T05:57:54;30.60;;;6.10;;
22622;SDS011;11478;51.094;7.030;2023-01-05T06:00:21;35.13;;;5.72;;
22622;SDS011;11478;51.094;7.030;2023-01-05T06:02:48;37.60;;;6.53;;
22622;SDS011;11478;51.094;7.030;2023-01-05T06:05:14;37.38;;;6.20;;
22622;SDS011;11478;51.094;7.030;2023-01-05T06:07:39;35.40;;;6.38;;
22622;SDS011;11478;51.094;7.030;2023-01-05T06:10:05;35.67;;;7.03;;
22622;SDS011;11478;51.094;7.030;2023-01-05T06:12:33;38.08;;;6.18;;
22622;SDS011;11478;51.094;7.030;2023-01-05T06:14:58;43.47;;;6.63;;
22622;SDS011;11478;51.094;7.030;2023-01-05T06:17:24;39.10;;;6.45;;
22622;SDS011;11478;51.094;7.030;2023-01-05T06:19:50;38.67;;;6.53;;
22622;SDS011;11478;51.094;7.030;2023-01-05T06:22:18;38.35;;;6.05;;
22622;SDS011;11478;51.094;7.030;2023-01-05T06:24:43;36.33;;;6.93;;
22622;SDS011;11478;51.094;7.030;2023-01-05T06:29:38;40.00;;;7.50;;
22622;SDS011;11478;51.094;7.030;2023-01-05T06:32:04;30.52;;;5.93;;
22622;SDS011;11478;51.094;7.030;2023-01-05T06:34:30;47.80;;;7.45;;
22622;SDS011;11478;51.094;7.030;2023-01-05T06:37:01;38.35;;;6.47;;
22622;SDS011;11478;51.094;7.030;2023-01-05T06:39:26;47.58;;;8.02;;
22622;SDS011;11478;51.094;7.030;2023-01-05T06:41:52;44.88;;;7.85;;
22622;SDS011;11478;51.094;7.030;2023-01-05T06:44:18;42.38;;;6.90;;
22622;SDS011;11478;51.094;7.030;2023-01-05T06:46:44;46.58;;;7.82;;
22622;SDS011;11478;51.094;7.030;2023-01-05T06:49:10;49.13;;;8.05;;
22622;SDS011;11478;51.094;7.030;2023-01-05T06:51:38;43.78;;;7.00;;
22622;SDS011;11478;51.094;7.030;2023-01-05T06:54:04;49.97;;;7.43;;
22622;SDS011;11478;51.094;7.030;2023-01-05T06:56:32;48.30;;;8.00;;
22622;SDS011;11478;51.094;7.030;2023-01-05T06:58:57;49.42;;;8.15;;
22622;SDS011;11478;51.094;7.030;2023-01-05T07:01:23;42.67;;;8.10;;
22622;SDS011;11478;51.094;7.030;2023-01-05T07:03:49;50.55;;;8.35;;
22622;SDS011;11478;51.094;7.030;2023-01-05T07:06:15;38.10;;;7.38;;
22622;SDS011;11478;51.094;7.030;2023-01-05T07:08:41;46.05;;;7.85;;
22622;SDS011;11478;51.094;7.030;2023-01-05T07:11:07;44.70;;;6.93;;
22622;SDS011;11478;51.094;7.030;2023-01-05T07:13:34;41.70;;;7.65;;
22622;SDS011;11478;51.094;7.030;2023-01-05T07:16:00;43.50;;;7.80;;
22622;SDS011;11478;51.094;7.030;2023-01-05T07:18:26;40.95;;;7.07;;
22622;SDS011;11478;51.094;7.030;2023-01-05T07:20:52;49.47;;;8.23;;
22622;SDS011;11478;51.094;7.030;2023-01-05T07:23:21;49.05;;;8.02;;
22622;SDS011;11478;51.094;7.030;2023-01-05T07:25:46;43.30;;;7.88;;
22622;SDS011;11478;51.094;7.030;2023-01-05T07:30:41;41.88;;;7.95;;
22622;SDS011;11478;51.094;7.030;2023-01-05T07:33:08;44.75;;;8.25;;
22622;SDS011;11478;51.094;7.030;2023-01-05T07:35:34;36.42;;;7.25;;
22622;SDS011;11478;51.094;7.030;2023-01-05T07:40:28;47.90;;;7.70;;
22622;SDS011;11478;51.094;7.030;2023-01-05T07:45:23;46.58;;;8.25;;
22622;SDS011;11478;51.094;7.030;2023-01-05T07:48:01;39.60;;;6.97;;
22622;SDS011;11478;51.094;7.030;2023-01-05T07:50:27;43.25;;;8.02;;
22622;SDS011;11478;51.094;7.030;2023-01-05T07:52:57;41.97;;;7.60;;
22622;SDS011;11478;51.094;7.030;2023-01-05T07:55:23;56.40;;;8.32;;
22622;SDS011;11478;51.094;7.030;2023-01-05T07:57:53;44.85;;;7.80;;
22622;SDS011;11478;51.094;7.030;2023-01-05T08:00:19;43.30;;;8.30;;
22622;SDS011;11478;51.094;7.030;2023-01-05T08:02:45;37.05;;;7.00;;
22622;SDS011;11478;51.094;7.030;2023-01-05T08:05:10;36.30;;;7.05;;
22622;SDS011;11478;51.094;7.030;2023-01-05T08:10:05;42.33;;;7.43;;
22622;SDS011;11478;51.094;7.030;2023-01-05T08:15:39;44.53;;;10.00;;
22622;SDS011;11478;51.094;7.030;2023-01-05T08:18:08;48.58;;;9.43;;
22622;SDS011;11478;51.094;7.030;2023-01-05T08:20:35;40.05;;;8.55;;
22622;SDS011;11478;51.094;7.030;2023-01-05T08:23:01;37.55;;;7.30;;
22622;SDS011;11478;51.094;7.030;2023-01-05T08:28:19;40.75;;;8.15;;
22622;SDS011;11478;51.094;7.030;2023-01-05T08:34:02;40.40;;;8.20;;
22622;SDS011;11478;51.094;7.030;2023-01-05T08:36:28;35.17;;;7.43;;
22622;SDS011;11478;51.094;7.030;2023-01-05T08:38:57;45.75;;;8.18;;
22622;SDS011;11478;51.094;7.030;2023-01-05T08:41:36;46.10;;;8.13;;
22622;SDS011;11478;51.094;7.030;2023-01-05T08:44:04;37.92;;;8.45;;
22622;SDS011;11478;51.094;7.030;2023-01-05T08:46:41;40.78;;;8.23;;
22622;SDS011;11478;51.094;7.030;2023-01-05T08:49:07;44.25;;;7.68;;
22622;SDS011;11478;51.094;7.030;2023-01-05T08:51:36;42.22;;;8.75;;
22622;SDS011;11478;51.094;7.030;2023-01-05T08:54:02;39.70;;;8.25;;
22622;SDS011;11478;51.094;7.030;2023-01-05T08:56:30;43.40;;;8.43;;
22622;SDS011;11478;51.094;7.030;2023-01-05T08:58:56;45.70;;;7.60;;
22622;SDS011;11478;51.094;7.030;2023-01-05T09:01:23;48.30;;;8.05;;
22622;SDS011;11478;51.094;7.030;2023-01-05T09:03:49;42.35;;;7.53;;
22622;SDS011;11478;51.094;7.030;2023-01-05T09:06:16;41.17;;;7.80;;
22622;SDS011;11478;51.094;7.030;2023-01-05T09:08:42;39.88;;;7.80;;
22622;SDS011;11478;51.094;7.030;2023-01-05T09:11:13;41.47;;;8.23;;
22622;SDS011;11478;51.094;7.030;2023-01-05T09:13:44;40.15;;;8.02;;
22622;SDS011;11478;51.094;7.030;2023-01-05T09:16:14;41.25;;;7.40;;
22622;SDS011;11478;51.094;7.030;2023-01-05T09:18:42;43.50;;;10.55;;
22622;SDS011;11478;51.094;7.030;2023-01-05T09:21:09;41.83;;;8.10;;
22622;SDS011;11478;51.094;7.030;2023-01-05T09:23:36;48.20;;;8.55;;
22622;SDS011;11478;51.094;7.030;2023-01-05T09:26:04;43.45;;;9.20;;
22622;SDS011;11478;51.094;7.030;2023-01-05T09:28:30;51.83;;;12.35;;
22622;SDS011;11478;51.094;7.030;2023-01-05T09:33:31;38.15;;;7.47;;
22622;SDS011;11478;51.094;7.030;2023-01-05T09:36:03;45.58;;;7.63;;
22622;SDS011;11478;51.094;7.030;2023-01-05T09:38:33;50.10;;;8.40;;
22622;SDS011;11478;51.094;7.030;2023-01-05T09:44:22;40.47;;;7.72;;
22622;SDS011;11478;51.094;7.030;2023-01-05T09:46:56;45.15;;;8.10;;
22622;SDS011;11478;51.094;7.030;2023-01-05T09:49:48;48.08;;;7.25;;
22622;SDS011;11478;51.094;7.030;2023-01-05T09:52:24;36.83;;;7.57;;
22622;SDS011;11478;51.094;7.030;2023-01-05T09:54:52;43.25;;;7.10;;
22622;SDS011;11478;51.094;7.030;2023-01-05T09:57:25;41.55;;;7.80;;
22622;SDS011;11478;51.094;7.030;2023-01-05T09:59:58;38.30;;;7.68;;
22622;SDS011;11478;51.094;7.030;2023-01-05T10:02:31;47.70;;;8.82;;
22622;SDS011;11478;51.094;7.030;2023-01-05T10:05:15;43.38;;;7.82;;
22622;SDS011;11478;51.094;7.030;2023-01-05T10:13:13;44.20;;;8.23;;
22622;SDS011;11478;51.094;7.030;2023-01-05T10:15:51;44.15;;;7.43;;
22622;SDS011;11478;51.094;7.030;2023-01-05T10:18:28;41.05;;;7.22;;
22622;SDS011;11478;51.094;7.030;2023-01-05T10:38:04;37.83;;;7.53;;
22622;SDS011;11478;51.094;7.030;2023-01-05T10:43:40;35.97;;;7.40;;
22622;SDS011;11478;51.094;7.030;2023-01-05T10:46:23;40.33;;;7.38;;
22622;SDS011;11478;51.094;7.030;2023-01-05T10:48:49;45.13;;;7.28;;
22622;SDS011;11478;51.094;7.030;2023-01-05T10:51:15;43.90;;;7.20;;
22622;SDS011;11478;51.094;7.030;2023-01-05T10:53:42;47.05;;;8.68;;
22622;SDS011;11478;51.094;7.030;2023-01-05T10:56:21;45.45;;;7.10;;
22622;SDS011;11478;51.094;7.030;2023-01-05T10:59:04;43.40;;;7.35;;
22622;SDS011;11478;51.094;7.030;2023-01-05T11:01:32;44.10;;;7.85;;
22622;SDS011;11478;51.094;7.030;2023-01-05T11:04:06;33.30;;;6.38;;
22622;SDS011;11478;51.094;7.030;2023-01-05T11:06:39;37.85;;;7.75;;
22622;SDS011;11478;51.094;7.030;2023-01-05T11:09:23;41.10;;;7.15;;
22622;SDS011;11478;51.094;7.030;2023-01-05T11:12:02;34.85;;;7.05;;
22622;SDS011;11478;51.094;7.030;2023-01-05T11:14:29;38.97;;;7.15;;
22622;SDS011;11478;51.094;7.030;2023-01-05T11:17:00;38.72;;;7.82;;
22622;SDS011;11478;51.094;7.030;2023-01-05T11:19:30;43.60;;;9.00;;
22622;SDS011;11478;51.094;7.030;2023-01-05T11:22:34;41.03;;;7.90;;
22622;SDS011;11478;51.094;7.030;2023-01-05T11:27:44;35.65;;;7.63;;
22622;SDS011;11478;51.094;7.030;2023-01-05T11:30:17;41.85;;;7.18;;
22622;SDS011;11478;51.094;7.030;2023-01-05T11:32:45;39.38;;;7.18;;
22622;SDS011;11478;51.094;7.030;2023-01-05T11:35:35;35.70;;;7.28;;
22622;SDS011;11478;51.094;7.030;2023-01-05T11:38:01;38.22;;;7.85;;
22622;SDS011;11478;51.094;7.030;2023-01-05T11:40:30;38.38;;;7.70;;
22622;SDS011;11478;51.094;7.030;2023-01-05T11:42:58;40.20;;;7.40;;
22622;SDS011;11478;51.094;7.030;2023-01-05T11:48:24;41.25;;;7.38;;
22622;SDS011;11478;51.094;7.030;2023-01-05T11:50:59;36.58;;;6.53;;
22622;SDS011;11478;51.094;7.030;2023-01-05T11:58:35;31.75;;;6.68;;
22622;SDS011;11478;51.094;7.030;2023-01-05T12:03:57;42.63;;;7.60;;
22622;SDS011;11478;51.094;7.030;2023-01-05T12:06:40;31.20;;;6.68;;
22622;SDS011;11478;51.094;7.030;2023-01-05T12:09:22;26.15;;;5.93;;
22622;SDS011;11478;51.094;7.030;2023-01-05T12:18:00;32.35;;;6.57;;
22622;SDS011;11478;51.094;7.030;2023-01-05T12:27:45;35.13;;;6.63;;
22622;SDS011;11478;51.094;7.030;2023-01-05T12:30:34;33.28;;;6.07;;
22622;SDS011;11478;51.094;7.030;2023-01-05T12:33:35;32.67;;;6.68;;
22622;SDS011;11478;51.094;7.030;2023-01-05T12:45:11;32.83;;;6.50;;
22622;SDS011;11478;51.094;7.030;2023-01-05T12:48:02;30.88;;;5.97;;
22622;SDS011;11478;51.094;7.030;2023-01-05T12:55:50;34.00;;;6.13;;
22622;SDS011;11478;51.094;7.030;2023-01-05T12:58:25;30.20;;;6.78;;
22622;SDS011;11478;51.094;7.030;2023-01-05T13:00:56;31.75;;;5.88;;
22622;SDS011;11478;51.094;7.030;2023-01-05T13:06:21;39.50;;;6.68;;
22622;SDS011;11478;51.094;7.030;2023-01-05T13:09:01;34.95;;;7.20;;
22622;SDS011;11478;51.094;7.030;2023-01-05T13:11:35;32.30;;;6.57;;
22622;SDS011;11478;51.094;7.030;2023-01-05T13:14:19;27.05;;;5.78;;
22622;SDS011;11478;51.094;7.030;2023-01-05T13:16:52;32.83;;;6.22;;
22622;SDS011;11478;51.094;7.030;2023-01-05T13:19:49;29.77;;;6.17;;
22622;SDS011;11478;51.094;7.030;2023-01-05T13:22:38;31.63;;;6.18;;
22622;SDS011;11478;51.094;7.030;2023-01-05T13:27:46;29.70;;;6.03;;
22622;SDS011;11478;51.094;7.030;2023-01-05T13:39:20;31.40;;;6.07;;
22622;SDS011;11478;51.094;7.030;2023-01-05T13:42:00;24.30;;;5.82;;
22622;SDS011;11478;51.094;7.030;2023-01-05T13:47:50;29.60;;;5.93;;
22622;SDS011;11478;51.094;7.030;2023-01-05T13:55:49;24.15;;;5.45;;
22622;SDS011;11478;51.094;7.030;2023-01-05T14:01:12;28.95;;;5.88;;
22622;SDS011;11478;51.094;7.030;2023-01-05T14:03:58;30.60;;;6.10;;
22622;SDS011;11478;51.094;7.030;2023-01-05T14:06:34;31.20;;;5.90;;
22622;SDS011;11478;51.094;7.030;2023-01-05T14:09:07;25.98;;;5.90;;
22622;SDS011;11478;51.094;7.030;2023-01-05T14:20:39;29.95;;;6.10;;
22622;SDS011;11478;51.094;7.030;2023-01-05T14:26:03;33.78;;;6.65;;
22622;SDS011;11478;51.094;7.030;2023-01-05T14:34:19;30.25;;;6.60;;
22622;SDS011;11478;51.094;7.030;2023-01-05T14:44:44;32.00;;;6.20;;
22622;SDS011;11478;51.094;7.030;2023-01-05T14:47:30;29.58;;;6.20;;
22622;SDS011;11478;51.094;7.030;2023-01-05T14:50:06;31.05;;;7.28;;
22622;SDS011;11478;51.094;7.030;2023-01-05T14:53:00;29.98;;;6.13;;
22622;SDS011;11478;51.094;7.030;2023-01-05T14:55:31;37.95;;;8.15;;
22622;SDS011;11478;51.094;7.030;2023-01-05T14:57:59;40.20;;;8.98;;
22622;SDS011;11478;51.094;7.030;2023-01-05T15:00:33;39.35;;;7.53;;
22622;SDS011;11478;51.094;7.030;2023-01-05T15:05:32;38.60;;;7.20;;
22622;SDS011;11478;51.094;7.030;2023-01-05T15:22:08;30.17;;;6.40;;
22622;SDS011;11478;51.094;7.030;2023-01-05T15:33:23;33.42;;;7.07;;
22622;SDS011;11478;51.094;7.030;2023-01-05T15:36:15;27.50;;;5.75;;
22622;SDS011;11478;51.094;7.030;2023-01-05T15:38:50;34.00;;;6.57;;
22622;SDS011;11478;51.094;7.030;2023-01-05T15:41:19;30.35;;;5.38;;
22622;SDS011;11478;51.094;7.030;2023-01-05T15:43:47;31.38;;;6.30;;
22622;SDS011;11478;51.094;7.030;2023-01-05T15:46:18;34.33;;;6.15;;
22622;SDS011;11478;51.094;7.030;2023-01-05T15:48:47;28.95;;;5.90;;
22622;SDS011;11478;51.094;7.030;2023-01-05T15:51:34;38.45;;;6.20;;
22622;SDS011;11478;51.094;7.030;2023-01-05T15:54:01;27.85;;;5.18;;
22622;SDS011;11478;51.094;7.030;2023-01-05T15:56:35;34.47;;;5.72;;
22622;SDS011;11478;51.094;7.030;2023-01-05T16:07:44;31.75;;;6.28;;
22622;SDS011;11478;51.094;7.030;2023-01-05T16:10:20;27.60;;;5.65;;
22622;SDS011;11478;51.094;7.030;2023-01-05T16:16:03;30.40;;;6.30;;
22622;SDS011;11478;51.094;7.030;2023-01-05T16:18:49;37.42;;;6.65;;
22622;SDS011;11478;51.094;7.030;2023-01-05T16:26:53;29.33;;;6.15;;
22622;SDS011;11478;51.094;7.030;2023-01-05T16:31:56;37.25;;;9.68;;
22622;SDS011;11478;51.094;7.030;2023-01-05T16:34:22;37.90;;;10.70;;
22622;SDS011;11478;51.094;7.030;2023-01-05T16:37:05;33.67;;;6.97;;
22622;SDS011;11478;51.094;7.030;2023-01-05T16:39:45;34.63;;;6.93;;
22622;SDS011;11478;51.094;7.030;2023-01-05T16:42:18;40.05;;;7.93;;
22622;SDS011;11478;51.094;7.030;2023-01-05T16:45:23;37.13;;;8.60;;
22622;SDS011;11478;51.094;7.030;2023-01-05T16:47:50;48.45;;;10.25;;
22622;SDS011;11478;51.094;7.030;2023-01-05T16:53:16;56.83;;;15.43;;
22622;SDS011;11478;51.094;7.030;2023-01-05T16:55:42;62.97;;;14.15;;
22622;SDS011;11478;51.094;7.030;2023-01-05T17:00:53;55.33;;;9.57;;
22622;SDS011;11478;51.094;7.030;2023-01-05T17:03:38;56.80;;;11.23;;
22622;SDS011;11478;51.094;7.030;2023-01-05T17:06:05;45.58;;;8.80;;
22622;SDS011;11478;51.094;7.030;2023-01-05T17:08:49;56.92;;;8.93;;
22622;SDS011;11478;51.094;7.030;2023-01-05T17:11:19;48.97;;;9.10;;
22622;SDS011;11478;51.094;7.030;2023-01-05T17:13:52;44.55;;;8.93;;
22622;SDS011;11478;51.094;7.030;2023-01-05T17:16:19;51.17;;;8.52;;
22622;SDS011;11478;51.094;7.030;2023-01-05T17:18:50;35.42;;;7.85;;
22622;SDS011;11478;51.094;7.030;2023-01-05T17:21:17;41.28;;;7.70;;
22622;SDS011;11478;51.094;7.030;2023-01-05T17:23:46;45.40;;;8.57;;
22622;SDS011;11478;51.094;7.030;2023-01-05T17:26:27;41.53;;;8.07;;
22622;SDS011;11478;51.094;7.030;2023-01-05T17:29:01;51.85;;;8.40;;
22622;SDS011;11478;51.094;7.030;2023-01-05T17:31:27;58.22;;;9.65;;
22622;SDS011;11478;51.094;7.030;2023-01-05T17:33:54;51.95;;;9.13;;
22622;SDS011;11478;51.094;7.030;2023-01-05T17:36:21;52.60;;;8.85;;
22622;SDS011;11478;51.094;7.030;2023-01-05T17:38:59;52.83;;;9.45;;
22622;SDS011;11478;51.094;7.030;2023-01-05T17:41:25;52.92;;;9.38;;
22622;SDS011;11478;51.094;7.030;2023-01-05T17:43:51;39.05;;;8.70;;
22622;SDS011;11478;51.094;7.030;2023-01-05T17:46:18;41.80;;;8.60;;
22622;SDS011;11478;51.094;7.030;2023-01-05T17:48:46;40.25;;;8.93;;
22622;SDS011;11478;51.094;7.030;2023-01-05T17:51:12;60.65;;;9.02;;
22622;SDS011;11478;51.094;7.030;2023-01-05T17:53:38;35.03;;;8.40;;
22622;SDS011;11478;51.094;7.030;2023-01-05T17:56:07;39.33;;;8.68;;
22622;SDS011;11478;51.094;7.030;2023-01-05T17:58:33;37.95;;;8.35;;
22622;SDS011;11478;51.094;7.030;2023-01-05T18:01:00;40.95;;;9.40;;
22622;SDS011;11478;51.094;7.030;2023-01-05T18:03:28;50.33;;;9.10;;
22622;SDS011;11478;51.094;7.030;2023-01-05T18:05:58;57.03;;;9.95;;
22622;SDS011;11478;51.094;7.030;2023-01-05T18:08:25;48.25;;;9.52;;
22622;SDS011;11478;51.094;7.030;2023-01-05T18:11:00;43.75;;;8.77;;
22622;SDS011;11478;51.094;7.030;2023-01-05T18:13:26;47.58;;;9.90;;
22622;SDS011;11478;51.094;7.030;2023-01-05T18:15:52;49.17;;;11.00;;
22622;SDS011;11478;51.094;7.030;2023-01-05T18:18:21;44.22;;;10.25;;
22622;SDS011;11478;51.094;7.030;2023-01-05T18:20:50;41.80;;;10.93;;
22622;SDS011;11478;51.094;7.030;2023-01-05T18:23:17;63.47;;;11.90;;
22622;SDS011;11478;51.094;7.030;2023-01-05T18:25:44;48.08;;;11.40;;
22622;SDS011;11478;51.094;7.030;2023-01-05T18:28:11;45.67;;;12.38;;
22622;SDS011;11478;51.094;7.030;2023-01-05T18:30:40;41.83;;;12.45;;
22622;SDS011;11478;51.094;7.030;2023-01-05T18:33:15;44.50;;;12.48;;
22622;SDS011;11478;51.094;7.030;2023-01-05T18:35:41;51.22;;;14.27;;
22622;SDS011;11478;51.094;7.030;2023-01-05T18:38:10;47.42;;;13.15;;
22622;SDS011;11478;51.094;7.030;2023-01-05T18:40:35;66.60;;;17.17;;
22622;SDS011;11478;51.094;7.030;2023-01-05T18:43:10;72.85;;;21.75;;
22622;SDS011;11478;51.094;7.030;2023-01-05T18:45:36;88.28;;;16.92;;
22622;SDS011;11478;51.094;7.030;2023-01-05T18:50:37;51.78;;;16.73;;
22622;SDS011;11478;51.094;7.030;2023-01-05T18:53:06;66.95;;;18.63;;
22622;SDS011;11478;51.094;7.030;2023-01-05T18:55:32;66.35;;;17.83;;
22622;SDS011;11478;51.094;7.030;2023-01-05T18:57:58;60.17;;;17.98;;
22622;SDS011;11478;51.094;7.030;2023-01-05T19:00:23;76.90;;;17.75;;
22622;SDS011;11478;51.094;7.030;2023-01-05T19:02:49;65.25;;;17.95;;
22622;SDS011;11478;51.094;7.030;2023-01-05T19:05:15;70.85;;;17.98;;
22622;SDS011;11478;51.094;7.030;2023-01-05T19:07:48;61.65;;;17.20;;